createdAt,value
2022-12-18T00:00:43.578Z,46.00
2022-12-18T00:06:09.988Z,43.80
2022-12-18T00:11:18.194Z,43.40
2022-12-18T00:16:25.939Z,45.50
2022-12-18T00:21:33.425Z,49.90
2022-12-18T00:26:39.939Z,50.80
2022-12-18T00:31:47.128Z,45.60
2022-12-18T00:36:53.560Z,43.70
2022-12-18T00:42:19.953Z,47.30
2022-12-18T00:47:27.492Z,46.40
2022-12-18T00:52:33.445Z,48.80
2022-12-18T00:57:39.319Z,44.10
2022-12-18T01:02:46.462Z,41.40
2022-12-18T01:07:52.438Z,35.50
2022-12-18T01:12:58.997Z,39.60
2022-12-18T01:18:05.097Z,38.30
2022-12-18T01:23:10.865Z,43.00
2022-12-18T01:28:16.529Z,41.50
2022-12-18T01:33:23.301Z,41.60
2022-12-18T01:38:31.008Z,37.70
2022-12-18T01:43:52.736Z,41.70
2022-12-18T01:49:01.297Z,41.00
2022-12-18T01:54:07.549Z,42.20
2022-12-18T01:59:14.283Z,35.40
2022-12-18T02:04:25.657Z,34.00
2022-12-18T02:09:38.731Z,35.50
2022-12-18T02:14:55.153Z,37.40
2022-12-18T02:20:11.149Z,36.20
2022-12-18T02:25:28.964Z,32.90
2022-12-18T02:30:38.776Z,37.30
2022-12-18T02:35:48.341Z,38.80
2022-12-18T02:40:57.756Z,34.80
2022-12-18T02:46:17.824Z,29.40
2022-12-18T02:51:30.530Z,30.00
2022-12-18T02:56:42.797Z,32.70
2022-12-18T03:01:55.250Z,33.80
2022-12-18T03:07:07.808Z,33.70
2022-12-18T03:12:26.412Z,28.50
2022-12-18T03:17:36.272Z,27.20
2022-12-18T03:22:45.380Z,29.00
2022-12-18T03:27:59.751Z,28.60
2022-12-18T03:33:09.322Z,26.90
2022-12-18T03:38:17.206Z,25.20
2022-12-18T03:43:36.807Z,25.30
2022-12-18T03:48:49.091Z,28.40
2022-12-18T03:53:59.480Z,21.60
2022-12-18T03:59:11.173Z,26.00
2022-12-18T04:04:20.121Z,23.40
2022-12-18T04:09:26.997Z,27.00
2022-12-18T04:14:36.699Z,26.60
2022-12-18T04:19:43.213Z,25.00
2022-12-18T04:24:50.082Z,22.90
2022-12-18T04:30:02.586Z,26.70
2022-12-18T04:35:11.682Z,25.10
2022-12-18T04:40:18.958Z,27.60
2022-12-18T04:45:26.079Z,22.20
2022-12-18T04:50:32.416Z,25.00
2022-12-18T04:55:38.219Z,25.20
2022-12-18T05:00:44.864Z,25.80
2022-12-18T05:05:53.248Z,23.40
2022-12-18T05:11:03.405Z,26.00
2022-12-18T05:16:09.920Z,22.80
2022-12-18T05:21:15.812Z,24.70
2022-12-18T05:26:21.864Z,23.60
2022-12-18T05:31:28.101Z,28.00
2022-12-18T05:36:34.095Z,27.40
2022-12-18T05:41:40.022Z,23.00
2022-12-18T05:46:46.069Z,26.30
2022-12-18T05:51:52.111Z,26.60
2022-12-18T05:56:59.229Z,25.60
2022-12-18T06:02:05.253Z,26.90
2022-12-18T06:07:11.097Z,27.60
2022-12-18T06:12:16.834Z,36.80
2022-12-18T06:25:46.065Z,35.20
2022-12-18T06:30:52.014Z,37.60
2022-12-18T06:36:03.385Z,35.30
2022-12-18T06:41:11.291Z,40.10
2022-12-18T06:46:17.252Z,41.70
2022-12-18T06:51:26.319Z,47.90
2022-12-18T06:56:32.369Z,42.10
2022-12-18T07:01:38.438Z,45.70
2022-12-18T07:06:44.657Z,41.20
2022-12-18T07:11:50.503Z,45.70
2022-12-18T07:16:56.390Z,48.60
2022-12-18T07:22:02.867Z,53.80
2022-12-18T07:27:08.821Z,49.00
2022-12-18T07:32:16.186Z,51.40
2022-12-18T07:37:22.054Z,51.20
2022-12-18T07:42:34.045Z,62.50
2022-12-18T07:47:42.370Z,59.60
2022-12-18T07:52:48.165Z,63.30
2022-12-18T07:57:59.212Z,66.30
2022-12-18T08:03:07.438Z,71.20
2022-12-18T08:08:13.422Z,63.70
2022-12-18T08:13:19.206Z,72.10
2022-12-18T08:18:25.165Z,79.60
2022-12-18T08:23:31.117Z,81.80
2022-12-18T08:28:37.124Z,76.70
2022-12-18T08:33:43.594Z,68.00
2022-12-18T08:38:50.809Z,76.70
2022-12-18T08:44:15.890Z,75.50
2022-12-18T08:49:21.709Z,83.00
2022-12-18T08:54:27.950Z,74.30
2022-12-18T08:59:33.877Z,75.10
2022-12-18T09:04:41.048Z,77.60
2022-12-18T09:09:51.622Z,73.30
2022-12-18T09:14:57.697Z,68.70
2022-12-18T09:20:04.409Z,69.40
2022-12-18T09:25:10.938Z,71.00
2022-12-18T09:30:17.362Z,68.70
2022-12-18T09:35:23.509Z,64.30
2022-12-18T09:40:35.343Z,61.30
2022-12-18T09:45:48.698Z,63.40
2022-12-18T09:50:59.512Z,61.00
2022-12-18T09:56:08.186Z,62.80
2022-12-18T10:01:15.420Z,67.00
2022-12-18T10:06:28.502Z,63.10
2022-12-18T10:11:48.010Z,63.90
2022-12-18T10:17:07.444Z,67.30
2022-12-18T10:22:24.986Z,74.40
2022-12-18T10:27:33.090Z,62.80
2022-12-18T10:32:39.560Z,62.00
2022-12-18T10:38:02.945Z,68.30
2022-12-18T10:43:15.560Z,60.00
2022-12-18T10:48:25.206Z,55.40
2022-12-18T10:53:34.216Z,59.40
2022-12-18T10:58:41.699Z,65.30
2022-12-18T11:04:02.605Z,64.50
2022-12-18T11:14:29.024Z,60.50
2022-12-18T11:19:38.046Z,61.30
2022-12-18T11:24:53.118Z,59.30
2022-12-18T11:30:21.693Z,59.00
2022-12-18T11:35:39.414Z,59.00
2022-12-18T11:40:51.698Z,61.90
2022-12-18T11:46:06.637Z,56.70
2022-12-18T11:51:18.321Z,65.00
2022-12-18T11:56:36.592Z,57.80
2022-12-18T12:01:51.997Z,65.90
2022-12-18T12:07:09.012Z,61.20
2022-12-18T12:12:48.979Z,86.00
2022-12-18T12:18:06.846Z,72.40
2022-12-18T12:23:28.074Z,62.20
2022-12-18T12:28:54.738Z,78.10
2022-12-18T12:34:11.095Z,117.20
2022-12-18T12:39:21.482Z,92.60
2022-12-18T12:44:31.708Z,84.70
2022-12-18T12:55:11.545Z,85.40
2022-12-18T13:00:23.068Z,83.50
2022-12-18T13:05:34.664Z,84.60
2022-12-18T13:10:42.260Z,96.80
2022-12-18T13:15:51.460Z,93.80
2022-12-18T13:21:16.456Z,90.50
2022-12-18T13:26:34.308Z,102.10
2022-12-18T13:32:23.238Z,93.90
2022-12-18T13:37:54.089Z,75.80
2022-12-18T13:43:15.806Z,72.90
2022-12-18T13:48:25.512Z,78.30
2022-12-18T13:53:36.769Z,90.90
2022-12-18T13:58:43.459Z,93.30
2022-12-18T14:03:49.945Z,87.60
2022-12-18T14:08:58.013Z,84.20
2022-12-18T14:14:05.475Z,73.40
2022-12-18T14:19:16.061Z,75.60
2022-12-18T14:24:23.151Z,76.60
2022-12-18T14:29:30.710Z,78.80
2022-12-18T14:34:36.645Z,80.90
2022-12-18T14:39:53.666Z,82.70
2022-12-18T14:45:49.190Z,67.70
2022-12-18T14:51:01.878Z,72.10
2022-12-18T14:56:17.158Z,82.40
2022-12-18T15:01:27.587Z,85.70
2022-12-18T15:06:37.396Z,87.00
2022-12-18T15:11:49.625Z,76.90
2022-12-18T15:16:57.480Z,79.80
2022-12-18T15:22:06.597Z,118.10
2022-12-18T15:27:25.294Z,146.90
2022-12-18T15:32:31.247Z,95.20
2022-12-18T15:37:42.100Z,89.40
2022-12-18T15:43:08.585Z,89.70
2022-12-18T15:48:22.128Z,101.10
2022-12-18T15:53:31.292Z,82.70
2022-12-18T15:58:37.241Z,82.90
2022-12-18T16:03:43.506Z,106.70
2022-12-18T16:08:50.102Z,95.10
2022-12-18T16:13:56.078Z,110.50
2022-12-18T16:19:01.818Z,96.30
2022-12-18T16:24:15.950Z,95.80
2022-12-18T16:29:28.459Z,97.20
2022-12-18T16:34:36.255Z,78.00
2022-12-18T16:39:43.268Z,318.30
2022-12-18T16:44:50.298Z,356.50
2022-12-18T16:49:57.359Z,173.60
2022-12-18T16:55:03.149Z,82.50
2022-12-18T17:00:11.289Z,79.00
2022-12-18T17:05:17.399Z,83.30
2022-12-18T17:10:23.314Z,85.00
2022-12-18T17:15:29.078Z,77.80
2022-12-18T17:20:34.828Z,79.80
2022-12-18T17:25:42.550Z,88.10
2022-12-18T17:30:48.430Z,61.00
2022-12-18T17:35:54.473Z,87.60
2022-12-18T17:41:03.620Z,72.30
2022-12-18T17:46:09.542Z,72.00
2022-12-18T17:51:16.454Z,77.80
2022-12-18T17:56:25.225Z,79.20
2022-12-18T18:01:31.216Z,145.80
2022-12-18T18:06:39.156Z,101.80
2022-12-18T18:12:04.633Z,73.40
2022-12-18T18:17:10.745Z,71.40
2022-12-18T18:22:20.281Z,80.10
2022-12-18T18:27:26.301Z,115.60
2022-12-18T18:32:32.832Z,82.90
2022-12-18T18:37:38.999Z,79.70
2022-12-18T18:42:46.851Z,148.20
2022-12-18T18:47:52.665Z,63.80
2022-12-18T18:52:58.400Z,73.40
2022-12-18T18:58:04.163Z,214.40
2022-12-18T19:03:12.505Z,180.70
2022-12-18T19:08:18.906Z,124.30
2022-12-18T19:13:27.126Z,75.90
2022-12-18T19:18:33.771Z,71.90
2022-12-18T19:23:39.585Z,85.50
2022-12-18T19:28:45.846Z,108.60
2022-12-18T19:33:52.645Z,71.90
2022-12-18T19:39:00.916Z,103.30
2022-12-18T19:44:08.819Z,133.60
2022-12-18T19:49:17.554Z,98.00
2022-12-18T19:54:24.132Z,68.30
2022-12-18T19:59:32.153Z,54.90
2022-12-18T20:04:37.864Z,88.90
2022-12-18T20:09:43.624Z,122.10
2022-12-18T20:14:50.294Z,78.00
2022-12-18T20:19:56.625Z,58.80
2022-12-18T20:25:03.225Z,70.10
2022-12-18T20:30:11.941Z,78.60
2022-12-18T20:35:18.281Z,60.30
2022-12-18T20:40:25.926Z,53.60
2022-12-18T20:45:31.827Z,58.10
2022-12-18T20:50:37.758Z,64.60
2022-12-18T20:55:46.432Z,54.80
2022-12-18T21:01:02.107Z,66.70
2022-12-18T21:06:09.068Z,65.10
2022-12-18T21:11:36.383Z,64.10
2022-12-18T21:16:43.952Z,57.70
2022-12-18T21:21:52.027Z,52.30
2022-12-18T21:27:01.876Z,57.40
2022-12-18T21:32:09.280Z,52.50
2022-12-18T21:37:15.060Z,51.00
2022-12-18T21:42:39.860Z,51.00
2022-12-18T21:47:45.750Z,56.20
2022-12-18T21:52:51.561Z,53.20
2022-12-18T21:57:57.629Z,45.00
2022-12-18T22:03:17.685Z,50.80
2022-12-18T22:08:25.459Z,52.10
2022-12-18T22:13:31.394Z,54.40
2022-12-18T22:18:37.159Z,47.10
2022-12-18T22:23:43.069Z,51.80
2022-12-18T22:29:07.990Z,55.70
2022-12-18T22:34:13.904Z,52.10
2022-12-18T22:39:21.918Z,75.80
2022-12-18T22:44:27.855Z,54.70
2022-12-18T22:49:34.908Z,51.30
2022-12-18T22:54:41.427Z,41.70
2022-12-18T22:59:47.600Z,46.50
2022-12-18T23:04:53.406Z,46.20
2022-12-18T23:10:00.744Z,51.50
2022-12-18T23:15:07.858Z,132.10
2022-12-18T23:20:14.063Z,55.80
2022-12-18T23:25:19.872Z,47.40
2022-12-18T23:30:26.213Z,50.20
2022-12-18T23:35:32.404Z,54.90
2022-12-18T23:40:38.144Z,48.70
2022-12-18T23:45:45.411Z,43.80
2022-12-18T23:50:51.185Z,49.10
2022-12-18T23:55:56.959Z,52.70
